Airfield :
LOGIN :

Register | Disclaimer

   EN    FR    IT 

 










Legend :    VFR   Marginal VFR   IFR   Intensive IFR   Very Intensive IFR
Visi :
Ceiling :
>= 8 km
>= 3000ft
5 to 8 km
1000 to 3000 ft
1500m to 5 km
500 to 1000 ft
800 to 1500m
200 to 500 ft
< 800m
< 200 ft
Symbols :   Thunderstorms  Fog  Heavy snow  Heavy precipitations  Wind > 20 kt
SIGMETs :     Misc.  Thunderstorms  Icing  Turbulence  Mountain Waves  Volcanic Ashes






- Airport Elevation : 1568 ft


ETSB - Büchel AB

CURRENT METAR :
  • 080220Z AUTO 20013KT 9999 // ////// 03/03 Q0996 ///

EXPIRED METARs :
  • 080120Z AUTO 18014KT 9999 // ////// 03/02 Q0995 ///
  • 080020Z AUTO 16008KT 3700 // ////// 01/00 Q0996 ///

TAF TAF ETSB
Valid from the 07 at 18:00 until the 08 at 03:00 UTC


071700Z 0718/0803 23010KT 9999 NSW FEW008 BKN018 BKN130
TEMPO 0718/0721 22012KT 9999 NSW BKN008 BKN080
BECMG 0721/0723 17012KT 8000 -RA SCT005 BKN007 BKN060
TEMPO 0723/0803 16012G25KT 3000 -RASN SCT002 BKN003 BY ETGL



MET'MAP, your aeronautical weather chart ! - Copyright ORBIFLY December 2007 - Disclaimer

ORBIFLY MET'MAP TEAM :

Programming & Development : Alexandra Zaïnal
Concept & original design : Baudouin d'Aumeries
Assistance for programming : Marc-Olivier Méhu
Technical & hardware support : Manuel Goepfert

Contact : metmap@orbifly.com




SOURCES & CREDITS :

   NOAA